Notice: Undefined index: language in D:\xampp\htdocs\vam\index.php on line 25
Open Air Virtual

 METAR AND TAF INFORMATION
METAR FOR ENHF
ADDS - METARS form results

(1558 UTC 04 June 2020)
Data provider http://aviationweather.gov/metar/data/
 
METAR text: ENHF 041550Z 11007KT 070V140 9999 BKN032 09/05 Q1012 RMK WIND 1254FT 12016KT
Conditions at: ENHF (HAMMERFEST , NO) observed 1550 UTC 04 June 2020
Temperature: 9.0°C (48°F)
Dewpoint: 5.0°C (41°F) [RH = 76%]
Pressure (altimeter): 29.88 inches Hg (1012.0 mb)
Winds: from the ESE (110 degrees) at 8 MPH (7 knots; 3.6 m/s)
Visibility: 6 or more miles (10+ km)
Ceiling: 3200 feet AGL
Clouds: broken clouds at 3200 feet AGL
Weather: no significant weather observed at this time

METAR text: ENHF 041520Z 10008KT 9999 VCSH BKN037 08/05 Q1012 RMK WIND 1254FT 12018KT
Conditions at: ENHF (HAMMERFEST , NO) observed 1520 UTC 04 June 2020
Temperature: 8.0°C (46°F)
Dewpoint: 5.0°C (41°F) [RH = 81%]
Pressure (altimeter): 29.88 inches Hg (1012.0 mb)
Winds: from the E (100 degrees) at 9 MPH (8 knots; 4.1 m/s)
Visibility: 6 or more miles (10+ km)
Ceiling: 3700 feet AGL
Clouds: broken clouds at 3700 feet AGL
Weather: VCSH  (showers in vicinity)

Forecast for: ENHF (HAMMERFEST , NO)
Text: TAF ENHF 041400Z 0415/0424 13012KT 9999 -RA FEW030 BKN050
Forecast period: 1500 UTC 04 June 2020 to 0000 UTC 05 June 2020
Forecast type: FROM: standard forecast or significant change
Winds: from the SE (130 degrees) at 14 MPH (12 knots; 6.2 m/s)
Visibility: 6 or more miles 10+ km)
Ceiling: 5000 feet AGL
Clouds: few clouds at 3000 feet AGL
broken clouds at 5000 feet AGL
Weather: -RA  (light rain)

 AIRPORT MAP

 RUNWAY INFORMATION
Runway 05 Runway length 2894 ft Runway width 0 ft
Runway elevation 259 ft Runway displaced threshold 0 ft Runway heading 0
Runway 23 Runway length 2894 ft Runway width 0 ft
Runway elevation 260 ft Runway displaced threshold 0 ft Runway heading 0

 AIRPORT FREQUENCIES

 AIRPORT NEAR NAVIGATION AIDS
Type VOR-DME Name Hammerfest Frequency 112400 KHZ



Powered by Virtual Airlines Manager [v2.6.2]